Itapira, Brazil
Current Conditions -  °F | °C
As of 12:00 AM on Thursday 27 Nov 2014 (Local Time) from SBKP Reporting Station
Light Rain Light Rain  
Wind Chill: 70°   Ceiling: 2500
Heat Index: 70°   Visibility: 5mi
Dew Point: 68°   Wind: 0mph
Humidity: 94%   Direction: NA
Pressure: 29.91"   Gusts: NA
Location:  22.44°S, 46.82°W
Report Text: SBKP 270200Z 00000KT 8000 -RA BKN025 SCT050 OVC080 21/20 Q1013
Loading
Personal Weather Stations






























Interactive Weather Map New forecast layout! Learn more

10-Day Weather Forecast

Advertisements
Track Severe Weather on mobile